Stamford Pioneer — VRJD7 — position and weather

sailwx.info

Track history (hours):
 
Tides and Currents Weather Stations Pressure Air Temp Water Temp Dewpoint Dewpoint Depression Visibility Wind Speed Wind Dir Waves Ship Positions

Stamford Pioneer

Last reported at 2015-Jan-14 01:13 UTC. Time now 2015-Jan-28 09:18 UTC.
Position N 31°06' E 122°26'.
Warning: this ship's position is 14 days out of date.

Length 180 m; draft 9.6 m.

Type: Cargo ship. MMSI: 477462800.

Date/timePositionNaut miles runAvg speedWind from/ knotsBaromVisibWave heightAir tempDewpointWater temp
2015-Jan-14 01:13N 31°06' E 122°26'711.0
2015-Jan-14 00:33N 31°07' E 122°17'1211.6
2015-Jan-13 23:34N 31°13' E 122°06'1110.9
2015-Jan-13 22:33N 31°16' E 121°54'1010.3
2015-Jan-13 21:33N 31°19' E 121°43'10 9.7
2015-Jan-13 20:33N 31°24' E 121°33'9 8.8
2015-Jan-13 19:33N 31°30' E 121°25'1211.7
2015-Jan-13 18:33N 31°38' E 121°15'1313.3
2015-Jan-13 17:33N 31°46' E 121°03'1211.7
2015-Jan-13 16:33N 31°54' E 120°53'1110.6
2015-Jan-13 15:33N 32°00' E 120°43'1211.6
2015-Jan-13 14:33N 32°02' E 120°29'8 8.3
2015-Jan-13 13:33N 31°58' E 120°21'10 9.5
2015-Jan-13 12:33N 31°56' E 120°09'1110.6
2015-Jan-13 11:33N 32°00' E 119°58'1312.8
2015-Jan-13 10:33N 32°12' E 119°53'  
2015-Jan-08 21:32N 32°12' E 119°33'10 9.1
2015-Jan-08 20:26N 32°18' E 119°43'10 8.5
2015-Jan-08 19:15N 32°14' E 119°53'811.8
2015-Jan-08 18:33N 32°06' E 119°55'1010.6
2015-Jan-08 17:33N 31°58' E 120°03'10 9.9
2015-Jan-08 16:33N 31°56' E 120°15'1211.5
2015-Jan-08 15:33N 32°03' E 120°26'9 9.1
2015-Jan-08 14:33N 32°01' E 120°36'1110.9
2015-Jan-08 13:33N 32°00' E 120°49'1212.0
2015-Jan-08 12:33N 31°49' E 120°55'1111.6
2015-Jan-08 11:33N 31°44' E 121°07'1211.5
2015-Jan-08 10:33N 31°36' E 121°17'1212.2
2015-Jan-08 09:33N 31°28' E 121°28'8 7.8
2015-Jan-08 08:33N 31°23' E 121°35'8 8.1
2015-Jan-08 07:33N 31°19' E 121°43'9 9.0
2015-Jan-08 06:33N 31°12' E 121°50'1211.8
2015-Jan-08 05:34N 31°05' E 122°01'1010.4
2015-Jan-08 04:33N 31°03' E 122°13'5 7.5
2015-Jan-08 03:51N 31°03' E 122°19'2 5.6
2015-Jan-08 03:33N 31°02' E 122°21'6 6.0
2015-Jan-08 02:33N 31°01' E 122°28'34311.3
2015-Jan-06 20:08N 36°43' E 122°54'814.6
2015-Jan-06 19:33N 36°51' E 122°51'1514.8
2015-Jan-06 18:33N 37°05' E 122°48'1716.0
2015-Jan-06 17:31N 37°22' E 122°48'1616.1
2015-Jan-06 16:33N 37°36' E 122°39'1514.4
2015-Jan-06 15:31N 37°47' E 122°26'15410.8
2015-Jan-06 01:16N 40°18' E 121°54'810.9
2015-Jan-06 00:33N 40°18' E 122°04'1 0.7
2015-Jan-05 23:33N 40°19' E 122°05'0 0.0
2015-Jan-05 22:33N 40°19' E 122°05'0 0.0
2015-Jan-05 21:33N 40°19' E 122°05'0 0.0
2015-Jan-05 20:33N 40°19' E 122°05'0 0.0
2015-Jan-05 19:33N 40°19' E 122°05'0 0.0
2015-Jan-05 18:33N 40°19' E 122°05'0 0.0
2015-Jan-05 17:33N 40°19' E 122°05'0 0.0
2015-Jan-05 16:29N 40°19' E 122°05'0 0.0
2015-Jan-05 13:13N 40°19' E 122°05'0 0.0
2015-Jan-05 12:32N 40°19' E 122°05'0 0.0
2015-Jan-05 11:14N 40°19' E 122°05'0 0.0
2015-Jan-05 10:22N 40°19' E 122°05'0 0.0
2015-Jan-05 09:33N 40°19' E 122°05'0 0.0
2015-Jan-05 08:33N 40°19' E 122°05'0 0.0
2015-Jan-05 07:33N 40°19' E 122°05'0 0.0
2015-Jan-05 06:33N 40°19' E 122°05'0 0.0
2015-Jan-05 05:18N 40°19' E 122°05'0 0.0
2015-Jan-05 04:31N 40°19' E 122°05'0 0.0
2015-Jan-05 03:32N 40°19' E 122°05'0 0.0
2015-Jan-05 02:33N 40°19' E 122°05'0 0.0
2015-Jan-05 01:33N 40°19' E 122°05'0 0.0
2015-Jan-05 00:33N 40°19' E 122°05'0 0.0
2015-Jan-04 23:33N 40°19' E 122°05'0 0.0
2015-Jan-04 22:33N 40°19' E 122°05'0 0.0
2015-Jan-04 21:33N 40°19' E 122°05'0 0.0
2015-Jan-04 20:33N 40°19' E 122°05'0 0.0
2015-Jan-04 19:28N 40°19' E 122°05'0 0.0
2015-Jan-04 18:33N 40°19' E 122°05'0 0.0
2015-Jan-04 17:33N 40°19' E 122°05'0 0.0
2015-Jan-04 15:28N 40°19' E 122°05'0 0.0
2015-Jan-04 14:33N 40°19' E 122°05'0 0.0
2015-Jan-04 13:32N 40°19' E 122°05'0 0.0
2015-Jan-04 12:31N 40°19' E 122°05'0 0.0
2015-Jan-04 11:28N 40°19' E 122°05'0 0.0
2015-Jan-04 10:32N 40°19' E 122°05'0 0.0
2015-Jan-04 09:32N 40°19' E 122°05'0 0.0
2015-Jan-04 08:17N 40°19' E 122°05'0 0.0
2015-Jan-04 07:29N 40°19' E 122°05'0 0.0
2015-Jan-04 06:29N 40°19' E 122°05'0 0.0
2015-Jan-04 05:28N 40°19' E 122°05'0 0.0
2015-Jan-04 04:33N 40°19' E 122°05'0 0.0
2015-Jan-04 03:30N 40°19' E 122°05'0 0.0
2015-Jan-04 02:29N 40°19' E 122°05'0 0.0
2015-Jan-04 01:31N 40°19' E 122°05'  
Track history (hours):
 
Tides and Currents Weather Stations Pressure Air Temp Water Temp Dewpoint Dewpoint Depression Visibility Wind Speed Wind Dir Waves Ship Positions

Stamford Pioneer

Last reported at 2015-Jan-14 01:13 UTC. Time now 2015-Jan-28 09:18 UTC.
Position N 31°06' E 122°26'.
Warning: this ship's position is 14 days out of date.

Length 180 m; draft 9.6 m.

Type: Cargo ship. MMSI: 477462800.

Date/timePositionNaut miles runAvg speedWind from/ knotsBaromVisibWave heightAir tempDewpointWater temp
2015-Jan-14 01:13N 31°06' E 122°26'711.0
2015-Jan-14 00:33N 31°07' E 122°17'1211.6
2015-Jan-13 23:34N 31°13' E 122°06'1110.9
2015-Jan-13 22:33N 31°16' E 121°54'1010.3
2015-Jan-13 21:33N 31°19' E 121°43'10 9.7
2015-Jan-13 20:33N 31°24' E 121°33'9 8.8
2015-Jan-13 19:33N 31°30' E 121°25'1211.7
2015-Jan-13 18:33N 31°38' E 121°15'1313.3
2015-Jan-13 17:33N 31°46' E 121°03'1211.7
2015-Jan-13 16:33N 31°54' E 120°53'1110.6
2015-Jan-13 15:33N 32°00' E 120°43'1211.6
2015-Jan-13 14:33N 32°02' E 120°29'8 8.3
2015-Jan-13 13:33N 31°58' E 120°21'10 9.5
2015-Jan-13 12:33N 31°56' E 120°09'1110.6
2015-Jan-13 11:33N 32°00' E 119°58'1312.8
2015-Jan-13 10:33N 32°12' E 119°53'  
2015-Jan-08 21:32N 32°12' E 119°33'10 9.1
2015-Jan-08 20:26N 32°18' E 119°43'10 8.5
2015-Jan-08 19:15N 32°14' E 119°53'811.8
2015-Jan-08 18:33N 32°06' E 119°55'1010.6
2015-Jan-08 17:33N 31°58' E 120°03'10 9.9
2015-Jan-08 16:33N 31°56' E 120°15'1211.5
2015-Jan-08 15:33N 32°03' E 120°26'9 9.1
2015-Jan-08 14:33N 32°01' E 120°36'1110.9
2015-Jan-08 13:33N 32°00' E 120°49'1212.0
2015-Jan-08 12:33N 31°49' E 120°55'1111.6
2015-Jan-08 11:33N 31°44' E 121°07'1211.5
2015-Jan-08 10:33N 31°36' E 121°17'1212.2
2015-Jan-08 09:33N 31°28' E 121°28'8 7.8
2015-Jan-08 08:33N 31°23' E 121°35'8 8.1
2015-Jan-08 07:33N 31°19' E 121°43'9 9.0
2015-Jan-08 06:33N 31°12' E 121°50'1211.8
2015-Jan-08 05:34N 31°05' E 122°01'1010.4
2015-Jan-08 04:33N 31°03' E 122°13'5 7.5
2015-Jan-08 03:51N 31°03' E 122°19'2 5.6
2015-Jan-08 03:33N 31°02' E 122°21'6 6.0
2015-Jan-08 02:33N 31°01' E 122°28'34311.3
2015-Jan-06 20:08N 36°43' E 122°54'814.6
2015-Jan-06 19:33N 36°51' E 122°51'1514.8
2015-Jan-06 18:33N 37°05' E 122°48'1716.0
2015-Jan-06 17:31N 37°22' E 122°48'1616.1
2015-Jan-06 16:33N 37°36' E 122°39'1514.4
2015-Jan-06 15:31N 37°47' E 122°26'15410.8
2015-Jan-06 01:16N 40°18' E 121°54'810.9
2015-Jan-06 00:33N 40°18' E 122°04'1 0.7
2015-Jan-05 23:33N 40°19' E 122°05'0 0.0
2015-Jan-05 22:33N 40°19' E 122°05'0 0.0
2015-Jan-05 21:33N 40°19' E 122°05'0 0.0
2015-Jan-05 20:33N 40°19' E 122°05'0 0.0
2015-Jan-05 19:33N 40°19' E 122°05'0 0.0
2015-Jan-05 18:33N 40°19' E 122°05'0 0.0
2015-Jan-05 17:33N 40°19' E 122°05'0 0.0
2015-Jan-05 16:29N 40°19' E 122°05'0 0.0
2015-Jan-05 13:13N 40°19' E 122°05'0 0.0
2015-Jan-05 12:32N 40°19' E 122°05'0 0.0
2015-Jan-05 11:14N 40°19' E 122°05'0 0.0
2015-Jan-05 10:22N 40°19' E 122°05'0 0.0
2015-Jan-05 09:33N 40°19' E 122°05'0 0.0
2015-Jan-05 08:33N 40°19' E 122°05'0 0.0
2015-Jan-05 07:33N 40°19' E 122°05'0 0.0
2015-Jan-05 06:33N 40°19' E 122°05'0 0.0
2015-Jan-05 05:18N 40°19' E 122°05'0 0.0
2015-Jan-05 04:31N 40°19' E 122°05'0 0.0
2015-Jan-05 03:32N 40°19' E 122°05'0 0.0
2015-Jan-05 02:33N 40°19' E 122°05'0 0.0
2015-Jan-05 01:33N 40°19' E 122°05'0 0.0
2015-Jan-05 00:33N 40°19' E 122°05'0 0.0
2015-Jan-04 23:33N 40°19' E 122°05'0 0.0
2015-Jan-04 22:33N 40°19' E 122°05'0 0.0
2015-Jan-04 21:33N 40°19' E 122°05'0 0.0
2015-Jan-04 20:33N 40°19' E 122°05'0 0.0
2015-Jan-04 19:28N 40°19' E 122°05'0 0.0
2015-Jan-04 18:33N 40°19' E 122°05'0 0.0
2015-Jan-04 17:33N 40°19' E 122°05'0 0.0
2015-Jan-04 15:28N 40°19' E 122°05'0 0.0
2015-Jan-04 14:33N 40°19' E 122°05'0 0.0
2015-Jan-04 13:32N 40°19' E 122°05'0 0.0
2015-Jan-04 12:31N 40°19' E 122°05'0 0.0
2015-Jan-04 11:28N 40°19' E 122°05'0 0.0
2015-Jan-04 10:32N 40°19' E 122°05'0 0.0
2015-Jan-04 09:32N 40°19' E 122°05'0 0.0
2015-Jan-04 08:17N 40°19' E 122°05'0 0.0
2015-Jan-04 07:29N 40°19' E 122°05'0 0.0
2015-Jan-04 06:29N 40°19' E 122°05'0 0.0
2015-Jan-04 05:28N 40°19' E 122°05'0 0.0
2015-Jan-04 04:33N 40°19' E 122°05'0 0.0
2015-Jan-04 03:30N 40°19' E 122°05'0 0.0
2015-Jan-04 02:29N 40°19' E 122°05'0 0.0
2015-Jan-04 01:31N 40°19' E 122°05'  

Dump ship's entire track history